Time;durP1;ratioP1;P1;durP2;ratioP2;P2;SDS_P1;SDS_P2;PMS_P1;PMS_P2;Temp;Humidity;BMP_temperature;BMP_pressure;BME280_temperature;BME280_humidity;BME280_pressure;Samples;Min_cycle;Max_cycle;Signal;HPM_P1;HPM_P2
2021/11/07 00:01:00;;;;;;;64.07;37.92;;;;;;;;;;5050195;28;20029;-66
2021/11/07 00:03:32;;;;;;;50.92;32.35;;;;;;;;;;5050218;28;20097;-66
2021/11/07 00:06:09;;;;;;;;;;;;;;;;;;5050627;28;20480;-67
2021/11/07 00:09:22;;;;;;;54.97;32.53;;;;;;;;;;5034729;28;19905;-69
2021/11/07 00:14:29;;;;;;;58.00;33.58;;;;;;;;;;5014883;28;20180;-69
2021/11/07 00:16:56;;;;;;;62.60;35.90;;;;;;;;;;5014872;28;20104;-67
2021/11/07 00:19:32;;;;;;;57.78;34.28;;;;;;;;;;5014731;28;20030;-68
2021/11/07 00:22:11;;;;;;;60.00;35.88;;;;;;;;;;5014737;28;20022;-67
2021/11/07 00:24:48;;;;;;;55.45;34.35;;;;;;;;;;5014671;28;20022;-68
2021/11/07 00:27:26;;;;;;;56.95;35.05;;;;;;;;;;5014685;28;20018;-66
2021/11/07 00:37:57;;;;;;;54.63;34.50;;;;;;;;;;5014439;28;20033;-69
2021/11/07 00:40:42;;;;;;;53.22;32.05;;;;;;;;;;5014663;28;20018;-66
2021/11/07 00:43:15;;;;;;;55.47;33.95;;;;;;;;;;5014332;28;20025;-66
2021/11/07 00:46:06;;;;;;;50.00;31.45;;;;;;;;;;5014290;28;20018;-66
2021/11/07 00:49:11;;;;;;;49.97;31.15;;;;;;;;;;5014248;28;20026;-66
2021/11/07 00:56:41;;;;;;;44.33;29.15;;;;;;;;;;5014093;28;20529;-65
2021/11/07 01:02:00;;;;;;;48.50;29.77;;;;;;;;;;5014058;28;20856;-66
2021/11/07 01:04:28;;;;;;;45.20;28.17;;;;;;;;;;5013995;28;20022;-64
2021/11/07 01:06:55;;;;;;;51.13;30.63;;;;;;;;;;5013898;28;20022;-65
2021/11/07 01:09:21;;;;;;;46.70;29.55;;;;;;;;;;5013431;28;20061;-66
2021/11/07 01:11:47;;;;;;;45.17;29.05;;;;;;;;;;5022788;28;20144;-66
2021/11/07 01:14:15;;;;;;;44.38;29.17;;;;;;;;;;5048892;28;20021;-67
2021/11/07 01:16:42;;;;;;;44.28;28.58;;;;;;;;;;5033533;28;20017;-67
2021/11/07 01:19:08;;;;;;;47.70;29.60;;;;;;;;;;5033331;28;20030;-66
2021/11/07 01:21:38;;;;;;;46.60;28.15;;;;;;;;;;5033404;28;20053;-66
2021/11/07 01:24:17;;;;;;;45.10;28.77;;;;;;;;;;5033417;28;20390;-66
2021/11/07 01:26:47;;;;;;;47.38;29.65;;;;;;;;;;5033392;28;20017;-66
2021/11/07 01:29:22;;;;;;;44.65;29.77;;;;;;;;;;5033305;28;20032;-65
2021/11/07 01:31:49;;;;;;;53.83;31.20;;;;;;;;;;5048597;28;20488;-68
2021/11/07 01:37:14;;;;;;;50.88;31.80;;;;;;;;;;5033257;28;20026;-66
2021/11/07 01:39:46;;;;;;;60.00;34.58;;;;;;;;;;5033025;28;20037;-67
2021/11/07 01:45:00;;;;;;;48.65;29.65;;;;;;;;;;5033169;28;20119;-65
2021/11/07 01:47:28;;;;;;;46.95;29.13;;;;;;;;;;5048143;28;20539;-67
2021/11/07 01:49:54;;;;;;;49.65;30.40;;;;;;;;;;5032936;28;20037;-64
2021/11/07 01:52:21;;;;;;;47.28;28.40;;;;;;;;;;5033286;28;20109;-66
2021/11/07 01:54:51;;;;;;;45.05;27.30;;;;;;;;;;5048297;28;20037;-65
2021/11/07 01:57:19;;;;;;;45.22;27.42;;;;;;;;;;5032703;28;20478;-64
2021/11/07 01:59:46;;;;;;;49.92;29.27;;;;;;;;;;5048179;28;20052;-66
2021/11/07 02:02:13;;;;;;;47.70;29.55;;;;;;;;;;5048207;28;20473;-66
2021/11/07 02:04:43;;;;;;;49.88;30.05;;;;;;;;;;5048278;28;20080;-63
2021/11/07 02:07:09;;;;;;;51.72;29.90;;;;;;;;;;5032893;28;20072;-67
2021/11/07 02:09:36;;;;;;;50.92;32.22;;;;;;;;;;5032548;28;20159;-63
2021/11/07 02:12:03;;;;;;;54.47;32.83;;;;;;;;;;5020901;28;20546;-64
2021/11/07 02:14:29;;;;;;;62.28;32.85;;;;;;;;;;5012836;28;20105;-65
2021/11/07 02:16:56;;;;;;;53.28;32.72;;;;;;;;;;5012134;28;20101;-65
2021/11/07 02:19:22;;;;;;;53.35;32.63;;;;;;;;;;5012654;28;20059;-64
2021/11/07 02:21:49;;;;;;;48.60;30.52;;;;;;;;;;5013018;28;20471;-65
2021/11/07 02:24:16;;;;;;;47.00;30.45;;;;;;;;;;5013023;28;20109;-66
2021/11/07 02:26:59;;;;;;;50.75;30.50;;;;;;;;;;5012960;28;20022;-64
2021/11/07 02:29:26;;;;;;;53.08;31.63;;;;;;;;;;4995261;28;20026;-64
2021/11/07 02:31:55;;;;;;;51.45;29.50;;;;;;;;;;5012920;28;20117;-63
2021/11/07 02:34:22;;;;;;;48.83;29.65;;;;;;;;;;5012859;28;20113;-64
2021/11/07 02:36:48;;;;;;;53.10;30.55;;;;;;;;;;5012846;28;20160;-65
2021/11/07 02:39:16;;;;;;;49.92;31.42;;;;;;;;;;5012877;28;20113;-64
2021/11/07 02:41:43;;;;;;;50.42;30.30;;;;;;;;;;5012721;28;20378;-65
2021/11/07 02:44:09;;;;;;;49.40;31.83;;;;;;;;;;4995245;28;20125;-64
2021/11/07 02:46:35;;;;;;;46.60;29.77;;;;;;;;;;5012781;28;20058;-65
2021/11/07 02:49:04;;;;;;;47.35;30.50;;;;;;;;;;5012893;28;20026;-65
2021/11/07 02:51:37;;;;;;;44.97;28.92;;;;;;;;;;5012757;28;20556;-66
2021/11/07 02:54:08;;;;;;;47.28;29.15;;;;;;;;;;5013067;28;20109;-65
2021/11/07 02:56:35;;;;;;;44.47;29.75;;;;;;;;;;4995102;28;20379;-64
2021/11/07 02:59:01;;;;;;;48.58;30.70;;;;;;;;;;5015182;28;20182;-66
2021/11/07 03:01:28;;;;;;;55.15;32.63;;;;;;;;;;5016268;28;20053;-66
2021/11/07 03:04:01;;;;;;;58.72;33.45;;;;;;;;;;4998557;28;20367;-65
2021/11/07 03:06:30;;;;;;;58.08;33.47;;;;;;;;;;5016483;28;20044;-65
2021/11/07 03:08:56;;;;;;;62.67;33.17;;;;;;;;;;5016000;28;20076;-64
2021/11/07 03:11:22;;;;;;;55.17;31.67;;;;;;;;;;5021777;28;20076;-65
2021/11/07 03:13:50;;;;;;;55.50;33.17;;;;;;;;;;5035759;28;20034;-65
2021/11/07 03:16:16;;;;;;;59.05;34.08;;;;;;;;;;5035727;28;20044;-67
2021/11/07 03:18:45;;;;;;;64.75;34.65;;;;;;;;;;5035763;28;20022;-65
2021/11/07 03:21:15;;;;;;;63.78;35.47;;;;;;;;;;5051006;28;20030;-66
2021/11/07 03:23:49;;;;;;;62.08;35.17;;;;;;;;;;5050970;28;20107;-66
2021/11/07 03:26:15;;;;;;;59.60;34.08;;;;;;;;;;5035608;28;20022;-66
2021/11/07 03:28:43;;;;;;;65.47;36.97;;;;;;;;;;5035444;28;20053;-66
2021/11/07 03:31:13;;;;;;;59.50;33.35;;;;;;;;;;5050769;28;20094;-67
2021/11/07 03:33:48;;;;;;;61.70;35.38;;;;;;;;;;5035347;28;20022;-67
2021/11/07 03:36:19;;;;;;;72.35;36.83;;;;;;;;;;5035399;28;20125;-66
2021/11/07 03:38:47;;;;;;;68.45;38.08;;;;;;;;;;5050525;28;20152;-66
2021/11/07 03:41:13;;;;;;;72.57;38.72;;;;;;;;;;5035509;28;20441;-66
2021/11/07 03:43:41;;;;;;;71.18;37.53;;;;;;;;;;5035199;28;20053;-66
2021/11/07 03:46:07;;;;;;;72.22;38.95;;;;;;;;;;5050553;28;20033;-65
2021/11/07 03:48:33;;;;;;;57.80;35.13;;;;;;;;;;5035330;28;20118;-66
2021/11/07 03:51:01;;;;;;;63.38;36.58;;;;;;;;;;5035110;28;20090;-67
2021/11/07 03:53:27;;;;;;;65.10;36.05;;;;;;;;;;5034963;28;20022;-65
2021/11/07 03:55:54;;;;;;;65.60;35.15;;;;;;;;;;5035053;28;20482;-65
2021/11/07 03:58:21;;;;;;;67.55;37.10;;;;;;;;;;5050266;28;20025;-66
2021/11/07 04:00:47;;;;;;;71.07;38.63;;;;;;;;;;5035162;28;20116;-67
2021/11/07 04:03:15;;;;;;;67.57;37.38;;;;;;;;;;5050151;28;20026;-67
2021/11/07 04:05:41;;;;;;;65.35;36.13;;;;;;;;;;5034854;28;20025;-67
2021/11/07 04:08:07;;;;;;;63.97;37.33;;;;;;;;;;5050060;28;20053;-68
2021/11/07 04:10:34;;;;;;;76.80;40.38;;;;;;;;;;5049793;28;20034;-68
2021/11/07 04:13:01;;;;;;;71.57;38.72;;;;;;;;;;5014803;28;20069;-68
2021/11/07 04:15:27;;;;;;;67.93;37.83;;;;;;;;;;5014849;28;20375;-68
2021/11/07 04:17:54;;;;;;;65.65;35.75;;;;;;;;;;5014791;28;20026;-67
2021/11/07 04:20:20;;;;;;;63.80;36.35;;;;;;;;;;5014681;28;20054;-66
2021/11/07 04:22:47;;;;;;;73.13;40.03;;;;;;;;;;5014679;28;20495;-68
2021/11/07 04:25:13;;;;;;;72.50;37.17;;;;;;;;;;5014686;28;20033;-68
2021/11/07 04:27:40;;;;;;;77.57;38.83;;;;;;;;;;5014579;28;20108;-66
2021/11/07 04:30:06;;;;;;;73.85;38.40;;;;;;;;;;5014607;28;20037;-67
2021/11/07 04:32:33;;;;;;;73.40;37.80;;;;;;;;;;5014512;28;20034;-66
2021/11/07 04:34:59;;;;;;;65.95;36.47;;;;;;;;;;4996912;28;20049;-66
2021/11/07 04:37:26;;;;;;;63.55;35.20;;;;;;;;;;4996753;28;20026;-67
2021/11/07 04:39:53;;;;;;;71.45;38.75;;;;;;;;;;4996765;28;20030;-66
2021/11/07 04:42:20;;;;;;;68.90;36.78;;;;;;;;;;4996655;28;20463;-66
2021/11/07 04:44:46;;;;;;;72.50;36.47;;;;;;;;;;5014136;28;20029;-66
2021/11/07 04:47:12;;;;;;;74.15;37.47;;;;;;;;;;5014226;28;20144;-65
2021/11/07 04:49:38;;;;;;;70.60;38.08;;;;;;;;;;5014124;28;20079;-66
2021/11/07 04:52:05;;;;;;;71.72;36.40;;;;;;;;;;5013927;28;20100;-66
2021/11/07 04:54:31;;;;;;;69.30;35.50;;;;;;;;;;4996518;28;20103;-65
2021/11/07 04:56:57;;;;;;;64.13;31.70;;;;;;;;;;5014100;28;20029;-67
2021/11/07 04:59:24;;;;;;;68.95;34.13;;;;;;;;;;4996344;28;20124;-66
2021/11/07 05:01:51;;;;;;;68.70;33.92;;;;;;;;;;4996360;28;20455;-67
2021/11/07 05:04:17;;;;;;;61.03;33.03;;;;;;;;;;5013999;28;20557;-66
2021/11/07 05:06:44;;;;;;;60.13;31.92;;;;;;;;;;4996383;28;20371;-67
2021/11/07 05:09:10;;;;;;;56.00;31.50;;;;;;;;;;5013801;28;20046;-67
2021/11/07 05:11:38;;;;;;;58.22;29.25;;;;;;;;;;5021642;28;20129;-67
2021/11/07 05:14:04;;;;;;;53.65;28.48;;;;;;;;;;5033539;28;20409;-65
2021/11/07 05:16:30;;;;;;;52.05;28.05;;;;;;;;;;5015391;28;20117;-66
2021/11/07 05:18:56;;;;;;;52.22;28.58;;;;;;;;;;5033562;28;20503;-65
2021/11/07 05:21:23;;;;;;;59.90;30.70;;;;;;;;;;5032888;28;20029;-65
2021/11/07 05:23:49;;;;;;;59.97;31.08;;;;;;;;;;5033386;28;20025;-66
2021/11/07 05:26:16;;;;;;;60.05;31.75;;;;;;;;;;5033111;28;20370;-64
2021/11/07 05:28:43;;;;;;;65.57;31.85;;;;;;;;;;5033303;28;20378;-68
2021/11/07 05:31:09;;;;;;;63.30;32.88;;;;;;;;;;5033303;28;20382;-68
2021/11/07 05:33:35;;;;;;;76.35;34.22;;;;;;;;;;5048266;28;20021;-68
2021/11/07 05:36:02;;;;;;;70.38;34.22;;;;;;;;;;5033325;28;20025;-67
2021/11/07 05:38:28;;;;;;;63.08;31.25;;;;;;;;;;5033197;28;20481;-67
2021/11/07 05:40:54;;;;;;;62.63;31.65;;;;;;;;;;5033176;28;20025;-67
2021/11/07 05:43:23;;;;;;;57.38;30.90;;;;;;;;;;5033158;28;20041;-67
2021/11/07 05:45:49;;;;;;;59.25;30.67;;;;;;;;;;5033035;28;20022;-67
2021/11/07 05:48:16;;;;;;;57.03;30.55;;;;;;;;;;5033112;28;20021;-67
2021/11/07 05:50:43;;;;;;;57.80;29.65;;;;;;;;;;5033014;28;20064;-65
2021/11/07 05:53:09;;;;;;;56.03;30.20;;;;;;;;;;5033301;28;20029;-64
2021/11/07 05:55:36;;;;;;;63.47;31.63;;;;;;;;;;5033012;28;20030;-65
2021/11/07 05:58:03;;;;;;;59.80;30.48;;;;;;;;;;5048242;28;20029;-62
2021/11/07 06:00:30;;;;;;;64.03;32.28;;;;;;;;;;5032956;28;20568;-62
2021/11/07 06:02:56;;;;;;;59.78;30.73;;;;;;;;;;5032927;28;20022;-62
2021/11/07 06:05:23;;;;;;;65.15;33.00;;;;;;;;;;5037575;28;20101;-64
2021/11/07 06:07:50;;;;;;;68.15;34.70;;;;;;;;;;5031206;28;20470;-63
2021/11/07 06:10:17;;;;;;;60.15;32.90;;;;;;;;;;5032786;28;20072;-63
2021/11/07 06:12:43;;;;;;;55.65;29.77;;;;;;;;;;5031214;28;20081;-63
2021/11/07 06:15:09;;;;;;;56.90;30.63;;;;;;;;;;5032760;28;20029;-63
2021/11/07 06:17:36;;;;;;;62.83;32.15;;;;;;;;;;5032401;28;20034;-64
2021/11/07 06:20:02;;;;;;;56.40;31.52;;;;;;;;;;5032735;28;20025;-63
2021/11/07 06:22:28;;;;;;;59.33;30.17;;;;;;;;;;5032726;28;20542;-63
2021/11/07 06:24:55;;;;;;;52.95;27.58;;;;;;;;;;5032252;28;20030;-62
2021/11/07 06:27:22;;;;;;;46.40;26.67;;;;;;;;;;5031390;28;20120;-63
2021/11/07 06:29:48;;;;;;;53.75;27.45;;;;;;;;;;5032563;28;20040;-63
2021/11/07 06:32:14;;;;;;;43.55;23.00;;;;;;;;;;5032152;28;20029;-63
2021/11/07 06:34:40;;;;;;;45.20;25.20;;;;;;;;;;5035029;28;20120;-63
2021/11/07 06:37:07;;;;;;;49.63;26.15;;;;;;;;;;5036401;28;20504;-64
2021/11/07 06:39:34;;;;;;;53.45;28.13;;;;;;;;;;5035022;28;20025;-64
2021/11/07 06:42:01;;;;;;;55.15;27.08;;;;;;;;;;5036353;28;20032;-64
2021/11/07 06:44:27;;;;;;;53.28;29.20;;;;;;;;;;5036258;28;20100;-64
2021/11/07 06:46:54;;;;;;;55.80;29.00;;;;;;;;;;5034929;28;20061;-64
2021/11/07 06:49:20;;;;;;;57.90;30.50;;;;;;;;;;5036089;28;20470;-64
2021/11/07 06:51:47;;;;;;;61.05;31.42;;;;;;;;;;5036141;28;20052;-65
2021/11/07 06:54:14;;;;;;;63.55;33.45;;;;;;;;;;5035945;28;20027;-64
2021/11/07 06:56:40;;;;;;;65.20;33.83;;;;;;;;;;5036089;28;20116;-64
2021/11/07 06:59:07;;;;;;;62.83;35.45;;;;;;;;;;5035943;28;20024;-63
2021/11/07 07:01:34;;;;;;;64.03;33.78;;;;;;;;;;5035907;28;20398;-63
2021/11/07 07:04:00;;;;;;;69.10;35.83;;;;;;;;;;5035666;28;20109;-64
2021/11/07 07:06:26;;;;;;;62.47;35.55;;;;;;;;;;5035947;28;20030;-63
2021/11/07 07:08:55;;;;;;;72.53;35.67;;;;;;;;;;5035565;28;20037;-62
2021/11/07 07:11:28;;;;;;;69.00;34.50;;;;;;;;;;5041258;28;20048;-62
2021/11/07 07:14:09;;;;;;;72.80;35.75;;;;;;;;;;5055719;28;20056;-62
2021/11/07 07:16:54;;;;;;;;;;;;;;;;;;5056177;28;20025;-62
2021/11/07 07:30:00;;;;;;;65.28;36.72;;;;;;;;;;5017362;28;20436;-62
2021/11/07 07:34:54;;;;;;;58.72;31.65;;;;;;;;;;5055150;28;20026;-63
2021/11/07 07:37:21;;;;;;;60.50;31.40;;;;;;;;;;5055097;28;20064;-64
2021/11/07 07:39:48;;;;;;;64.10;33.35;;;;;;;;;;5037067;28;20024;-63
2021/11/07 07:42:14;;;;;;;62.50;31.33;;;;;;;;;;5055139;28;20056;-64
2021/11/07 07:44:40;;;;;;;68.15;36.55;;;;;;;;;;5054544;28;20423;-63
2021/11/07 07:47:07;;;;;;;80.22;41.42;;;;;;;;;;5055163;28;20476;-62
2021/11/07 07:49:33;;;;;;;77.47;41.90;;;;;;;;;;5054837;28;20127;-65
2021/11/07 07:52:00;;;;;;;76.55;38.75;;;;;;;;;;5054964;28;20021;-66
2021/11/07 07:54:26;;;;;;;74.90;40.33;;;;;;;;;;5055011;28;20488;-64
2021/11/07 07:56:52;;;;;;;73.32;40.58;;;;;;;;;;5049625;28;20021;-65
2021/11/07 07:59:19;;;;;;;66.65;37.35;;;;;;;;;;5040565;28;20396;-64
2021/11/07 08:01:46;;;;;;;67.88;38.75;;;;;;;;;;5036731;28;20466;-64
2021/11/07 08:04:12;;;;;;;81.10;41.83;;;;;;;;;;5054794;28;20074;-65
2021/11/07 08:06:38;;;;;;;79.93;43.88;;;;;;;;;;5054814;28;20032;-65
2021/11/07 08:09:05;;;;;;;74.65;40.13;;;;;;;;;;5054261;28;20025;-66
2021/11/07 08:11:31;;;;;;;73.68;40.15;;;;;;;;;;5054326;28;20072;-65
2021/11/07 08:13:58;;;;;;;75.32;40.92;;;;;;;;;;5054618;28;20052;-64
2021/11/07 08:16:26;;;;;;;75.03;39.83;;;;;;;;;;5054375;28;20428;-65
2021/11/07 08:18:53;;;;;;;74.32;41.63;;;;;;;;;;5036509;28;20535;-64
2021/11/07 08:21:20;;;;;;;85.90;45.10;;;;;;;;;;5054487;28;20454;-64
2021/11/07 08:23:49;;;;;;;74.72;41.33;;;;;;;;;;5036499;28;20450;-64
2021/11/07 08:26:15;;;;;;;70.85;41.10;;;;;;;;;;5054405;28;20025;-64
2021/11/07 08:28:42;;;;;;;79.85;46.65;;;;;;;;;;5054190;28;20079;-64
2021/11/07 08:31:17;;;;;;;85.20;48.30;;;;;;;;;;5054288;28;20048;-65
2021/11/07 08:33:43;;;;;;;95.57;51.55;;;;;;;;;;5036316;28;20056;-65
2021/11/07 08:36:13;;;;;;;94.45;50.45;;;;;;;;;;5054140;28;20150;-64
2021/11/07 08:38:47;;;;;;;72.82;38.17;;;;;;;;;;5054194;28;20032;-65
2021/11/07 08:41:15;;;;;;;84.60;45.90;;;;;;;;;;5054100;28;20468;-67
2021/11/07 09:05:30;;;;;;;92.38;47.53;;;;;;;;;;5053231;28;20041;-64
2021/11/07 09:10:30;;;;;;;84.93;43.30;;;;;;;;;;5053444;28;20037;-64
2021/11/07 09:12:56;;;;;;;95.25;48.80;;;;;;;;;;5053080;28;20095;-65
2021/11/07 09:15:24;;;;;;;104.65;51.13;;;;;;;;;;5053460;28;20035;-64
2021/11/07 09:17:51;;;;;;;102.38;50.83;;;;;;;;;;5053193;28;20104;-65
2021/11/07 09:20:23;;;;;;;92.82;46.50;;;;;;;;;;5053417;28;20028;-66
2021/11/07 09:23:00;;;;;;;94.82;46.55;;;;;;;;;;5053404;28;20082;-65
2021/11/07 09:25:31;;;;;;;107.45;51.92;;;;;;;;;;5035443;28;20108;-66
2021/11/07 09:28:03;;;;;;;103.45;48.78;;;;;;;;;;5053352;28;20016;-65
2021/11/07 09:30:38;;;;;;;88.78;44.53;;;;;;;;;;5053274;28;20119;-65
2021/11/07 09:38:24;;;;;;;89.45;45.63;;;;;;;;;;5053123;28;20067;-64
2021/11/07 09:41:12;;;;;;;90.75;42.25;;;;;;;;;;5053015;28;20021;-66
2021/11/07 09:49:14;;;;;;;88.80;44.10;;;;;;;;;;5052966;28;20032;-65
2021/11/07 09:51:41;;;;;;;92.18;45.53;;;;;;;;;;5052937;28;20025;-64
2021/11/07 09:54:08;;;;;;;92.00;43.58;;;;;;;;;;5052895;28;20052;-65
2021/11/07 09:56:34;;;;;;;93.35;44.03;;;;;;;;;;5041529;28;20017;-66
2021/11/07 09:59:01;;;;;;;102.53;47.95;;;;;;;;;;5043600;28;20477;-65
2021/11/07 10:01:31;;;;;;;100.72;46.55;;;;;;;;;;5052877;28;20013;-67
2021/11/07 10:03:59;;;;;;;86.93;40.47;;;;;;;;;;5052838;28;20013;-66
2021/11/07 10:06:28;;;;;;;92.07;43.05;;;;;;;;;;5034951;28;20021;-66
2021/11/07 10:08:55;;;;;;;91.50;45.47;;;;;;;;;;5038950;28;20493;-65
2021/11/07 10:11:31;;;;;;;78.25;39.05;;;;;;;;;;5056734;28;20060;-65
2021/11/07 10:13:58;;;;;;;78.65;40.45;;;;;;;;;;5038998;28;20037;-64
2021/11/07 10:16:35;;;;;;;70.47;36.05;;;;;;;;;;5038839;28;20076;-64
2021/11/07 10:19:15;;;;;;;88.25;44.25;;;;;;;;;;5056839;28;20501;-64
2021/11/07 10:21:45;;;;;;;96.40;42.05;;;;;;;;;;5057059;28;20025;-65
2021/11/07 10:24:17;;;;;;;109.93;52.72;;;;;;;;;;5038841;28;20384;-65
2021/11/07 10:26:53;;;;;;;60.85;34.25;;;;;;;;;;5050160;28;20025;-64
2021/11/07 10:29:46;;;;;;;79.40;44.33;;;;;;;;;;5053792;28;20488;-62
2021/11/07 10:32:34;;;;;;;75.40;40.20;;;;;;;;;;5014966;28;20163;-62
2021/11/07 10:38:27;;;;;;;80.03;39.40;;;;;;;;;;5036173;28;20393;-62
2021/11/07 10:41:23;;;;;;;80.10;41.95;;;;;;;;;;5036401;28;20029;-62
2021/11/07 10:44:16;;;;;;;66.78;35.63;;;;;;;;;;5038190;28;20026;-62
2021/11/07 10:47:32;;;;;;;82.00;43.72;;;;;;;;;;5055921;28;20116;-64
2021/11/07 10:52:27;;;;;;;72.45;38.72;;;;;;;;;;5055988;28;20036;-65
2021/11/07 10:54:54;;;;;;;65.47;35.05;;;;;;;;;;5055962;28;20028;-65
2021/11/07 10:57:21;;;;;;;60.55;35.05;;;;;;;;;;5055535;28;20369;-65
2021/11/07 11:00:08;;;;;;;63.70;35.28;;;;;;;;;;5055937;28;20057;-65
2021/11/07 11:02:43;;;;;;;64.75;35.05;;;;;;;;;;5037813;28;20021;-64
2021/11/07 11:05:29;;;;;;;64.45;35.72;;;;;;;;;;5055865;28;20025;-65
2021/11/07 11:07:59;;;;;;;66.13;36.13;;;;;;;;;;5038671;28;20064;-65
2021/11/07 11:10:32;;;;;;;79.57;40.13;;;;;;;;;;5055566;28;20033;-65
2021/11/07 11:13:11;;;;;;;75.93;41.15;;;;;;;;;;5055284;28;20049;-65
2021/11/07 11:15:49;;;;;;;67.65;37.88;;;;;;;;;;5055734;28;20032;-65
2021/11/07 11:18:52;;;;;;;72.43;39.65;;;;;;;;;;5054792;28;20116;-65
2021/11/07 11:21:42;;;;;;;79.45;41.63;;;;;;;;;;5037592;28;20237;-65
2021/11/07 11:32:54;;;;;;;112.05;50.78;;;;;;;;;;5055396;28;20547;-65
2021/11/07 11:40:13;;;;;;;105.93;49.90;;;;;;;;;;5054775;28;20071;-64
2021/11/07 11:45:06;;;;;;;91.20;46.63;;;;;;;;;;5055106;28;20040;-63
2021/11/07 11:48:02;;;;;;;101.93;49.75;;;;;;;;;;5036815;28;20025;-63
2021/11/07 11:58:33;;;;;;;94.53;45.80;;;;;;;;;;5055028;28;20175;-62
2021/11/07 12:01:13;;;;;;;116.80;53.72;;;;;;;;;;5054936;28;20029;-63
2021/11/07 12:03:59;;;;;;;102.30;47.35;;;;;;;;;;5036622;28;20025;-62
2021/11/07 12:09:23;;;;;;;91.78;45.58;;;;;;;;;;5054579;28;20420;-61
2021/11/07 12:12:18;;;;;;;85.22;42.63;;;;;;;;;;5044665;28;20144;-61
2021/11/07 12:15:07;;;;;;;96.32;47.83;;;;;;;;;;5062027;28;20033;-62
2021/11/07 12:17:35;;;;;;;87.53;42.10;;;;;;;;;;5036616;28;20033;-61
2021/11/07 12:20:02;;;;;;;108.22;50.72;;;;;;;;;;5053481;28;20064;-62
2021/11/07 12:22:30;;;;;;;103.78;49.75;;;;;;;;;;5053846;28;20390;-62
2021/11/07 12:25:00;;;;;;;92.07;45.60;;;;;;;;;;5054012;28;20017;-62
2021/11/07 12:27:29;;;;;;;103.53;48.95;;;;;;;;;;5054068;28;20519;-64
2021/11/07 12:29:57;;;;;;;98.53;47.33;;;;;;;;;;5053650;28;20120;-62
2021/11/07 12:32:25;;;;;;;97.05;48.20;;;;;;;;;;5054019;28;20486;-62
2021/11/07 12:35:00;;;;;;;84.47;42.38;;;;;;;;;;5054032;28;20063;-61
2021/11/07 12:40:30;;;;;;;;;;;;;;;;;;5054284;28;20067;-63
2021/11/07 12:43:04;;;;;;;73.68;36.90;;;;;;;;;;5072015;28;20245;-62
2021/11/07 12:45:34;;;;;;;71.82;36.38;;;;;;;;;;5049847;28;20031;-62
2021/11/07 12:48:06;;;;;;;67.93;35.53;;;;;;;;;;5035355;28;20032;-63
2021/11/07 12:50:55;;;;;;;72.35;35.90;;;;;;;;;;5067888;28;20419;-63
2021/11/07 12:53:22;;;;;;;69.05;36.53;;;;;;;;;;5073686;28;20021;-64
2021/11/07 12:55:50;;;;;;;68.57;35.67;;;;;;;;;;5073584;28;20027;-63
2021/11/07 12:58:17;;;;;;;71.13;37.10;;;;;;;;;;5073098;28;20028;-65
2021/11/07 13:00:44;;;;;;;63.72;35.05;;;;;;;;;;5073515;28;20107;-65
2021/11/07 13:03:11;;;;;;;74.80;38.72;;;;;;;;;;5073472;28;20070;-65
2021/11/07 13:05:40;;;;;;;68.63;35.53;;;;;;;;;;5073502;28;20029;-64
2021/11/07 13:08:10;;;;;;;59.55;31.90;;;;;;;;;;5073262;28;20031;-64
2021/11/07 13:11:26;;;;;;;62.72;34.78;;;;;;;;;;5072928;28;20050;-64
2021/11/07 13:16:22;;;;;;;85.22;43.03;;;;;;;;;;5073129;28;20373;-65
2021/11/07 13:27:20;;;;;;;63.38;33.92;;;;;;;;;;5073127;28;20111;-65
2021/11/07 13:29:51;;;;;;;71.22;37.63;;;;;;;;;;5073050;28;20032;-63
2021/11/07 13:34:53;;;;;;;75.88;41.60;;;;;;;;;;5072789;28;20044;-64
2021/11/07 13:37:21;;;;;;;72.80;39.03;;;;;;;;;;5072964;28;20103;-64
2021/11/07 13:39:48;;;;;;;81.35;40.58;;;;;;;;;;5072689;28;20033;-63
2021/11/07 13:42:15;;;;;;;74.65;39.38;;;;;;;;;;5054388;28;20036;-65
2021/11/07 13:44:46;;;;;;;78.95;43.03;;;;;;;;;;5072921;28;20062;-63
2021/11/07 13:47:12;;;;;;;77.05;40.25;;;;;;;;;;5072963;28;20035;-63
2021/11/07 13:49:49;;;;;;;79.60;42.00;;;;;;;;;;5072829;28;20031;-64
2021/11/07 13:52:16;;;;;;;78.65;40.35;;;;;;;;;;5072731;28;20025;-64
2021/11/07 13:54:42;;;;;;;72.72;37.65;;;;;;;;;;5044183;28;20377;-65
2021/11/07 13:57:09;;;;;;;72.97;38.15;;;;;;;;;;5051902;28;20083;-67
2021/11/07 13:59:43;;;;;;;77.53;41.20;;;;;;;;;;5050604;28;20470;-66
2021/11/07 14:02:19;;;;;;;76.05;40.40;;;;;;;;;;5019803;28;20025;-65
2021/11/07 14:04:47;;;;;;;76.43;42.63;;;;;;;;;;5051362;28;20025;-66
2021/11/07 14:07:18;;;;;;;77.50;42.72;;;;;;;;;;5051163;28;20025;-66
2021/11/07 14:09:57;;;;;;;80.10;43.13;;;;;;;;;;5052825;28;20110;-67
2021/11/07 14:12:30;;;;;;;75.43;40.97;;;;;;;;;;5069763;28;20449;-65
2021/11/07 14:15:06;;;;;;;70.35;39.35;;;;;;;;;;5072362;28;20501;-65
2021/11/07 14:17:33;;;;;;;75.75;40.22;;;;;;;;;;5072808;28;20074;-65
2021/11/07 14:19:59;;;;;;;74.40;41.95;;;;;;;;;;5072724;28;20056;-66
2021/11/07 14:22:26;;;;;;;76.20;42.38;;;;;;;;;;5072586;28;20028;-66
2021/11/07 14:24:52;;;;;;;85.10;45.20;;;;;;;;;;5072618;28;20024;-65
2021/11/07 14:27:32;;;;;;;79.13;44.33;;;;;;;;;;5072550;28;20027;-65
2021/11/07 14:30:03;;;;;;;84.13;47.55;;;;;;;;;;5072636;28;20363;-65
2021/11/07 14:32:39;;;;;;;89.82;49.75;;;;;;;;;;5072532;28;20488;-66
2021/11/07 14:38:05;;;;;;;72.78;40.38;;;;;;;;;;5072587;28;20472;-65
2021/11/07 14:43:15;;;;;;;89.45;47.28;;;;;;;;;;5072467;28;20111;-65
2021/11/07 14:57:04;;;;;;;77.85;43.45;;;;;;;;;;5076113;28;20081;-65
2021/11/07 15:05:10;;;;;;;56.55;32.08;;;;;;;;;;5075936;28;20043;-65
2021/11/07 15:10:18;;;;;;;76.43;41.60;;;;;;;;;;5075792;28;20506;-65
2021/11/07 15:18:15;;;;;;;89.40;48.22;;;;;;;;;;5075762;28;20115;-66
2021/11/07 15:20:50;;;;;;;90.82;48.35;;;;;;;;;;5075683;28;20029;-65
2021/11/07 15:23:31;;;;;;;86.35;47.92;;;;;;;;;;5057633;28;20027;-65
2021/11/07 15:25:58;;;;;;;72.80;41.67;;;;;;;;;;5075664;28;20028;-66
2021/11/07 15:28:28;;;;;;;74.57;42.78;;;;;;;;;;5075532;28;20056;-64
2021/11/07 15:30:56;;;;;;;84.97;47.33;;;;;;;;;;5075426;28;20033;-65
2021/11/07 15:33:22;;;;;;;87.32;49.45;;;;;;;;;;5057060;28;20028;-65
2021/11/07 15:35:50;;;;;;;89.72;51.90;;;;;;;;;;5075528;28;20024;-66
2021/11/07 15:38:19;;;;;;;94.15;50.92;;;;;;;;;;5075257;28;20059;-65
2021/11/07 15:40:46;;;;;;;84.50;48.70;;;;;;;;;;5075274;28;20031;-65
2021/11/07 15:43:20;;;;;;;76.78;43.72;;;;;;;;;;5074900;28;20423;-66
2021/11/07 15:46:02;;;;;;;79.78;45.40;;;;;;;;;;5075231;28;20028;-65
2021/11/07 15:48:34;;;;;;;80.70;45.70;;;;;;;;;;5075065;28;20376;-65
2021/11/07 15:56:38;;;;;;;76.85;41.55;;;;;;;;;;5075023;28;20025;-65
2021/11/07 16:01:46;;;;;;;72.07;40.25;;;;;;;;;;5074778;28;20115;-65
2021/11/07 16:09:32;;;;;;;77.82;43.83;;;;;;;;;;5074615;28;20032;-64
2021/11/07 16:12:25;;;;;;;78.35;43.80;;;;;;;;;;5074564;28;20056;-65
2021/11/07 16:15:05;;;;;;;75.25;44.28;;;;;;;;;;5074769;28;20376;-64
2021/11/07 16:17:34;;;;;;;82.25;44.90;;;;;;;;;;5056255;28;20411;-66
2021/11/07 16:20:06;;;;;;;75.88;46.28;;;;;;;;;;5074508;28;20108;-65
2021/11/07 16:22:32;;;;;;;76.03;43.90;;;;;;;;;;5056590;28;20024;-65
2021/11/07 16:25:00;;;;;;;83.25;46.70;;;;;;;;;;5056261;28;20021;-65
2021/11/07 16:27:26;;;;;;;94.80;49.83;;;;;;;;;;5056442;28;20532;-66
2021/11/07 16:29:52;;;;;;;84.47;48.85;;;;;;;;;;5073965;28;20377;-65
2021/11/07 16:32:28;;;;;;;84.00;46.17;;;;;;;;;;5073916;28;20180;-65
2021/11/07 16:35:10;;;;;;;83.90;45.38;;;;;;;;;;5074133;28;20047;-65
2021/11/07 16:37:42;;;;;;;89.88;47.28;;;;;;;;;;5074084;28;20023;-66
2021/11/07 16:40:17;;;;;;;103.93;55.28;;;;;;;;;;5074079;28;20032;-65
2021/11/07 16:42:44;;;;;;;91.10;48.83;;;;;;;;;;5074027;28;20062;-66
2021/11/07 16:45:11;;;;;;;101.57;53.50;;;;;;;;;;5073951;28;20377;-66
2021/11/07 16:47:40;;;;;;;111.22;56.38;;;;;;;;;;5073874;28;20024;-66
2021/11/07 16:50:08;;;;;;;105.60;53.80;;;;;;;;;;5055675;28;20033;-67
2021/11/07 16:52:36;;;;;;;123.45;62.78;;;;;;;;;;5055884;28;20393;-64
2021/11/07 16:55:08;;;;;;;83.60;45.30;;;;;;;;;;5073822;28;20158;-66
2021/11/07 16:57:36;;;;;;;81.57;42.75;;;;;;;;;;5073460;28;20422;-65
2021/11/07 17:10:12;;;;;;;85.30;45.53;;;;;;;;;;5073451;28;20098;-65
2021/11/07 17:12:45;;;;;;;106.00;52.42;;;;;;;;;;5073068;28;20045;-64
2021/11/07 17:15:20;;;;;;;89.40;48.10;;;;;;;;;;5073499;28;20032;-65
2021/11/07 17:18:30;;;;;;;80.38;44.30;;;;;;;;;;5054554;28;20107;-65
2021/11/07 17:20:49;;;;;;;87.43;43.90;;;;;;;;;;5067037;28;20123;-66
2021/11/07 17:28:48;;;;;;;119.80;57.22;;;;;;;;;;5072746;28;20101;-67
2021/11/07 17:31:22;;;;;;;92.22;49.67;;;;;;;;;;5054821;28;20036;-66
2021/11/07 17:34:16;;;;;;;80.68;44.38;;;;;;;;;;5054323;28;20021;-65
2021/11/07 17:37:20;;;;;;;86.57;45.20;;;;;;;;;;5072367;28;20032;-67